createdAt,value
2022-09-20T00:00:17.729Z,1.75
2022-09-20T00:02:45.915Z,3.50
2022-09-20T00:05:14.079Z,2.00
2022-09-20T00:07:45.256Z,0.00
2022-09-20T00:10:14.261Z,0.25
2022-09-20T00:12:42.401Z,1.25
2022-09-20T00:15:10.967Z,2.00
2022-09-20T00:17:40.406Z,1.00
2022-09-20T00:20:08.797Z,1.00
2022-09-20T00:22:36.948Z,1.00
2022-09-20T00:25:05.196Z,1.00
2022-09-20T00:27:33.318Z,0.00
2022-09-20T00:30:01.392Z,0.75
2022-09-20T00:32:32.572Z,1.50
2022-09-20T00:35:11.037Z,2.00
2022-09-20T00:37:39.930Z,2.50
2022-09-20T00:40:09.511Z,1.50
2022-09-20T00:42:37.817Z,0.00
2022-09-20T00:45:07.063Z,1.00
2022-09-20T00:47:38.319Z,2.25
2022-09-20T00:50:16.256Z,1.00
2022-09-20T00:52:46.716Z,2.75
2022-09-20T00:55:15.525Z,1.00
2022-09-20T00:57:44.095Z,1.00
2022-09-20T01:00:12.871Z,1.00
2022-09-20T01:02:42.389Z,1.50
2022-09-20T01:05:11.461Z,1.50
2022-09-20T01:07:41.605Z,1.00
2022-09-20T01:10:10.062Z,1.00
2022-09-20T01:12:40.948Z,0.25
2022-09-20T01:15:10.170Z,1.00
2022-09-20T01:17:39.743Z,1.00
2022-09-20T01:20:12.692Z,0.00
2022-09-20T01:22:49.488Z,1.00
2022-09-20T01:25:19.361Z,1.50
2022-09-20T01:27:50.321Z,1.00
2022-09-20T01:30:20.585Z,0.00
2022-09-20T01:33:17.871Z,1.75
2022-09-20T01:35:48.160Z,2.00
2022-09-20T01:38:31.189Z,1.25
2022-09-20T01:41:04.272Z,1.00
2022-09-20T01:43:36.207Z,2.00
2022-09-20T01:46:10.372Z,1.00
2022-09-20T01:48:39.858Z,1.00
2022-09-20T01:51:18.727Z,2.00
2022-09-20T01:54:07.673Z,2.00
2022-09-20T01:56:53.434Z,1.00
2022-09-20T01:59:36.714Z,2.00
2022-09-20T02:02:10.157Z,0.50
2022-09-20T02:04:46.571Z,2.00
2022-09-20T02:07:20.783Z,1.50
2022-09-20T02:10:03.928Z,1.50
2022-09-20T02:12:49.808Z,2.50
2022-09-20T02:15:30.738Z,1.00
2022-09-20T02:18:03.449Z,2.25
2022-09-20T02:20:34.430Z,2.25
2022-09-20T02:23:13.533Z,2.00
2022-09-20T02:25:53.036Z,1.00
2022-09-20T02:28:27.573Z,3.00
2022-09-20T02:31:03.960Z,1.75
2022-09-20T02:33:48.626Z,5.50
2022-09-20T02:36:27.263Z,3.00
2022-09-20T02:39:00.905Z,3.25
2022-09-20T02:41:43.933Z,0.00
2022-09-20T02:44:18.620Z,3.00
2022-09-20T02:46:52.132Z,3.25
2022-09-20T02:49:23.708Z,1.75
2022-09-20T02:51:53.996Z,1.75
2022-09-20T02:54:29.983Z,1.50
2022-09-20T02:57:01.565Z,2.00
2022-09-20T02:59:34.848Z,2.00
2022-09-20T03:02:09.466Z,2.50
2022-09-20T03:04:45.959Z,2.50
2022-09-20T03:07:19.743Z,2.25
2022-09-20T03:09:53.127Z,1.00
2022-09-20T03:12:27.740Z,1.50
2022-09-20T03:15:01.041Z,1.00
2022-09-20T03:17:36.617Z,2.00
2022-09-20T03:20:14.873Z,0.25
2022-09-20T03:22:50.027Z,1.00
2022-09-20T03:25:28.966Z,2.25
2022-09-20T03:28:04.827Z,1.25
2022-09-20T03:30:42.655Z,2.00
2022-09-20T03:33:15.213Z,2.25
2022-09-20T03:35:54.898Z,2.25
2022-09-20T03:38:30.098Z,2.00
2022-09-20T03:41:12.786Z,0.00
2022-09-20T03:43:51.600Z,0.00
2022-09-20T03:46:20.831Z,1.00
2022-09-20T03:49:09.619Z,1.00
2022-09-20T03:51:43.388Z,1.50
2022-09-20T03:54:28.777Z,2.75
2022-09-20T03:57:25.951Z,1.50
2022-09-20T04:00:06.778Z,1.50
2022-09-20T04:02:47.726Z,2.00
2022-09-20T04:05:17.448Z,1.00
2022-09-20T04:07:54.795Z,2.00
2022-09-20T04:10:30.165Z,2.00
2022-09-20T04:13:04.643Z,1.00
2022-09-20T04:15:37.020Z,3.25
2022-09-20T04:18:09.480Z,2.00
2022-09-20T04:20:43.175Z,5.25
2022-09-20T04:23:17.660Z,1.75
2022-09-20T04:25:48.648Z,2.50
2022-09-20T04:28:20.726Z,2.50
2022-09-20T04:30:50.608Z,2.75
2022-09-20T04:33:21.686Z,2.00
2022-09-20T04:36:14.222Z,2.75
2022-09-20T04:38:44.413Z,3.00
2022-09-20T04:41:39.125Z,3.00
2022-09-20T04:44:33.407Z,3.00
2022-09-20T04:47:25.548Z,2.00
2022-09-20T04:50:11.595Z,3.00
2022-09-20T04:52:57.517Z,2.75
2022-09-20T04:55:46.929Z,0.00
2022-09-20T04:58:36.250Z,2.00
2022-09-20T05:01:22.599Z,2.75
2022-09-20T05:04:05.592Z,3.25
2022-09-20T05:06:43.406Z,3.00
2022-09-20T05:09:29.161Z,3.00
2022-09-20T05:12:16.874Z,2.50
2022-09-20T05:15:04.079Z,3.00
2022-09-20T05:17:38.014Z,1.75
2022-09-20T05:20:24.421Z,4.00
2022-09-20T05:23:04.007Z,3.00
2022-09-20T05:25:42.620Z,4.25
2022-09-20T05:28:19.413Z,3.75
2022-09-20T05:30:49.294Z,6.00
2022-09-20T05:33:21.569Z,2.00
2022-09-20T05:35:54.886Z,4.50
2022-09-20T05:41:08.318Z,6.25
2022-09-20T05:43:42.397Z,4.00
2022-09-20T05:46:16.277Z,3.25
2022-09-20T05:48:53.481Z,30.00
2022-09-20T05:51:28.740Z,7.50
2022-09-20T05:54:07.127Z,3.00
2022-09-20T05:56:41.783Z,2.50
2022-09-20T05:59:28.813Z,1.00
2022-09-20T06:02:09.596Z,11.00
2022-09-20T06:04:43.168Z,3.25
2022-09-20T06:07:19.991Z,3.00
2022-09-20T06:09:59.591Z,17.75
2022-09-20T06:12:41.704Z,4.00
2022-09-20T06:15:18.012Z,3.40
2022-09-20T06:17:51.019Z,4.40
2022-09-20T06:20:24.196Z,3.80
2022-09-20T06:22:54.557Z,2.00
2022-09-20T06:25:24.528Z,2.00
2022-09-20T06:27:54.322Z,2.00
2022-09-20T06:30:24.473Z,2.25
2022-09-20T06:32:58.201Z,3.00
2022-09-20T06:35:29.501Z,2.50
2022-09-20T06:38:22.422Z,4.00
2022-09-20T06:41:08.966Z,11.50
2022-09-20T06:43:40.590Z,4.00
2022-09-20T06:46:09.071Z,4.40
2022-09-20T06:48:40.257Z,3.75
2022-09-20T06:51:10.688Z,2.00
2022-09-20T06:53:41.317Z,3.75
2022-09-20T06:56:09.914Z,3.00
2022-09-20T06:58:38.028Z,3.00
2022-09-20T07:01:06.543Z,2.00
2022-09-20T07:03:34.896Z,5.25
2022-09-20T07:06:04.622Z,5.25
2022-09-20T07:08:32.872Z,4.00
2022-09-20T07:11:04.669Z,2.25
2022-09-20T07:13:33.251Z,1.00
2022-09-20T07:16:02.422Z,4.25
2022-09-20T07:18:31.284Z,2.00
2022-09-20T07:20:59.702Z,3.50
2022-09-20T07:23:30.140Z,8.75
2022-09-20T07:25:59.998Z,4.50
2022-09-20T07:28:28.148Z,8.50
2022-09-20T07:30:56.244Z,72.40
2022-09-20T07:33:25.224Z,3.50
2022-09-20T07:35:54.552Z,3.25
2022-09-20T07:38:23.238Z,3.25
2022-09-20T07:40:58.036Z,3.75
2022-09-20T07:43:26.471Z,5.00
2022-09-20T07:45:56.081Z,8.00
2022-09-20T07:48:25.965Z,6.50
2022-09-20T07:50:55.164Z,4.00
2022-09-20T07:53:24.697Z,5.25
2022-09-20T07:56:01.637Z,3.25
2022-09-20T07:58:29.955Z,2.60
2022-09-20T08:00:59.768Z,3.25
2022-09-20T15:32:20.018Z,11.25
2022-09-20T15:34:49.060Z,12.25
2022-09-20T15:37:18.762Z,11.00
2022-09-20T15:39:48.074Z,10.25
2022-09-20T15:42:16.959Z,14.00
2022-09-20T15:44:45.604Z,17.00
2022-09-20T15:47:16.035Z,19.50
2022-09-20T15:49:46.864Z,14.75
2022-09-20T15:52:15.087Z,23.25
2022-09-20T15:54:47.253Z,20.00
2022-09-20T15:57:16.099Z,20.75
2022-09-20T15:59:45.774Z,18.00
2022-09-20T16:02:39.185Z,21.00
2022-09-20T16:08:50.601Z,23.00
2022-09-20T16:11:22.921Z,14.50
2022-09-20T16:13:58.212Z,19.00
2022-09-20T16:16:27.391Z,19.50
2022-09-20T16:19:13.466Z,21.75
2022-09-20T16:21:42.842Z,21.75
2022-09-20T16:24:13.579Z,5.00
2022-09-20T16:26:42.114Z,32.75
2022-09-20T16:29:11.404Z,27.75
2022-09-20T16:31:41.190Z,38.75
2022-09-20T16:34:14.003Z,22.75
2022-09-20T16:36:43.592Z,30.75
2022-09-20T16:39:14.296Z,30.75
2022-09-20T16:41:42.928Z,29.75
2022-09-20T16:44:11.543Z,32.50
2022-09-20T16:46:40.205Z,28.75
2022-09-20T16:49:09.802Z,30.25
2022-09-20T16:51:39.410Z,25.00
2022-09-20T16:54:11.791Z,29.75
2022-09-20T16:56:43.514Z,30.25
2022-09-20T16:59:12.803Z,18.50
2022-09-20T17:01:42.682Z,27.00
2022-09-20T17:04:13.583Z,24.50
2022-09-20T17:06:43.756Z,21.50
2022-09-20T17:09:12.441Z,28.50
2022-09-20T17:11:56.671Z,22.25
2022-09-20T17:14:28.480Z,26.67
2022-09-20T17:17:01.569Z,1.50
2022-09-20T17:19:30.019Z,24.25
2022-09-20T17:21:58.497Z,20.75
2022-09-20T17:24:26.727Z,29.50
2022-09-20T17:26:59.376Z,17.25
2022-09-20T17:29:27.862Z,24.00
2022-09-20T17:31:59.951Z,27.25
2022-09-20T17:34:30.198Z,31.75
2022-09-20T17:36:59.280Z,32.25
2022-09-20T17:39:27.481Z,28.75
2022-09-20T17:42:01.536Z,35.00
2022-09-20T17:44:30.216Z,28.00
2022-09-20T17:46:58.586Z,26.25
2022-09-20T17:49:28.336Z,27.50
2022-09-20T17:51:57.476Z,21.00
2022-09-20T17:54:26.925Z,26.50
2022-09-20T17:56:56.407Z,25.00
2022-09-20T17:59:26.223Z,27.25
2022-09-20T18:01:55.754Z,23.75
2022-09-20T18:04:25.504Z,28.75
2022-09-20T18:06:54.794Z,31.00
2022-09-20T18:09:24.294Z,13.25
2022-09-20T18:11:53.715Z,29.00
2022-09-20T18:14:25.418Z,17.75
2022-09-20T18:16:58.242Z,26.00
2022-09-20T18:19:32.812Z,23.75
2022-09-20T18:22:01.873Z,29.25
2022-09-20T18:24:30.864Z,30.25
2022-09-20T18:27:00.854Z,30.50
2022-09-20T18:29:29.557Z,30.50
2022-09-20T18:32:01.533Z,47.50
2022-09-20T18:34:31.387Z,55.50
2022-09-20T18:37:00.462Z,64.80
2022-09-20T18:39:29.637Z,76.20
2022-09-20T18:41:58.133Z,82.40
2022-09-20T18:44:32.429Z,78.60
2022-09-20T18:47:03.959Z,69.20
2022-09-20T18:49:32.728Z,75.00
2022-09-20T18:52:00.958Z,82.00
2022-09-20T18:54:30.646Z,60.40
2022-09-20T18:56:59.430Z,64.40
2022-09-20T18:59:28.658Z,60.00
2022-09-20T19:02:15.878Z,57.25
2022-09-20T19:04:52.587Z,46.00
2022-09-20T19:07:25.526Z,38.50
2022-09-20T19:09:57.580Z,39.00
2022-09-20T19:12:30.853Z,44.00
2022-09-20T19:15:05.036Z,45.00
2022-09-20T19:17:43.376Z,39.75
2022-09-20T19:20:16.597Z,44.00
2022-09-20T19:22:52.115Z,33.25
2022-09-20T19:25:24.787Z,39.00
2022-09-20T19:27:53.611Z,39.75
2022-09-20T19:30:22.453Z,37.75
2022-09-20T19:32:51.193Z,42.75
2022-09-20T19:35:25.117Z,41.25
2022-09-20T19:38:00.358Z,28.50
2022-09-20T19:40:35.729Z,41.50
2022-09-20T19:43:11.073Z,32.50
2022-09-20T19:45:44.685Z,36.50
2022-09-20T19:48:17.994Z,43.00
2022-09-20T19:50:50.108Z,45.75
2022-09-20T19:53:19.879Z,41.25
2022-09-20T19:55:49.605Z,37.25
2022-09-20T19:58:18.332Z,39.00
2022-09-20T20:00:49.302Z,44.25
2022-09-20T20:03:17.813Z,46.25
2022-09-20T20:05:52.297Z,51.75
2022-09-20T20:08:23.587Z,46.75
2022-09-20T20:10:58.813Z,58.40
2022-09-20T20:13:50.956Z,58.40
2022-09-20T20:16:24.536Z,44.75
2022-09-20T20:19:02.813Z,36.75
2022-09-20T20:21:38.403Z,49.80
2022-09-20T20:24:10.566Z,51.60
2022-09-20T20:26:38.666Z,43.75
2022-09-20T20:29:06.923Z,41.25
2022-09-20T20:31:35.091Z,44.25
2022-09-20T20:34:03.187Z,45.00
2022-09-20T20:36:32.710Z,45.25
2022-09-20T20:39:02.696Z,40.25
2022-09-20T20:41:32.003Z,29.25
2022-09-20T20:44:00.205Z,39.50
2022-09-20T20:46:28.303Z,34.75
2022-09-20T20:48:58.605Z,30.50
2022-09-20T20:51:27.354Z,30.25
2022-09-20T20:53:58.369Z,35.75
2022-09-20T20:56:27.636Z,31.50
2022-09-20T20:59:00.893Z,35.75
2022-09-20T21:01:31.016Z,33.25
2022-09-20T21:03:59.573Z,35.50
2022-09-20T21:06:28.852Z,31.00
2022-09-20T21:08:58.726Z,36.00
2022-09-20T21:11:27.589Z,36.50
2022-09-20T21:13:57.189Z,32.75
2022-09-20T21:16:26.158Z,23.00
2022-09-20T21:18:54.529Z,30.50
2022-09-20T21:21:23.809Z,36.50
2022-09-20T21:23:52.829Z,39.75
2022-09-20T21:26:22.914Z,34.50
2022-09-20T21:28:52.199Z,32.00
2022-09-20T21:31:20.982Z,34.20
2022-09-20T21:33:49.517Z,35.60
2022-09-20T21:36:18.383Z,30.25
2022-09-20T21:38:46.915Z,33.00
2022-09-20T21:41:16.321Z,27.25
2022-09-20T21:43:46.910Z,27.25
2022-09-20T21:46:15.749Z,32.25
2022-09-20T21:48:43.880Z,32.00
2022-09-20T21:51:12.747Z,33.00
2022-09-20T21:53:40.968Z,30.50
2022-09-20T21:56:09.887Z,38.00
2022-09-20T21:58:40.105Z,49.80
2022-09-20T22:01:11.694Z,35.00
2022-09-20T22:03:40.521Z,50.75
2022-09-20T22:06:09.791Z,41.25
2022-09-20T22:08:38.760Z,30.50
2022-09-20T22:11:11.095Z,30.25
2022-09-20T22:13:42.558Z,87.40
2022-09-20T22:16:12.697Z,108.80
2022-09-20T22:18:41.888Z,97.20
2022-09-20T22:21:11.529Z,95.40
2022-09-20T22:23:40.155Z,86.60
2022-09-20T22:26:09.629Z,79.40
2022-09-20T22:28:38.045Z,77.20
2022-09-20T22:31:07.464Z,85.80
2022-09-20T22:33:37.321Z,72.60
2022-09-20T22:36:07.927Z,70.20
2022-09-20T22:38:36.009Z,61.20
2022-09-20T22:41:04.136Z,58.40
2022-09-20T22:43:33.172Z,58.00
2022-09-20T22:46:05.276Z,71.40
2022-09-20T22:48:33.910Z,71.00
2022-09-20T22:51:04.193Z,69.20
2022-09-20T22:53:32.769Z,77.40
2022-09-20T22:56:05.113Z,57.80
2022-09-20T22:58:35.335Z,68.00
2022-09-20T23:01:07.734Z,67.80
2022-09-20T23:03:36.934Z,65.20
2022-09-20T23:06:12.367Z,51.40
2022-09-20T23:08:40.508Z,52.20
2022-09-20T23:11:08.979Z,58.20
2022-09-20T23:13:38.224Z,46.60
2022-09-20T23:16:16.360Z,51.60
2022-09-20T23:18:44.421Z,51.00
2022-09-20T23:21:13.936Z,43.00
2022-09-20T23:23:45.054Z,54.00
2022-09-20T23:26:13.950Z,53.80
2022-09-20T23:28:43.097Z,51.40
2022-09-20T23:31:13.208Z,40.40
2022-09-20T23:33:46.515Z,47.50
2022-09-20T23:36:17.005Z,46.20
2022-09-20T23:38:45.890Z,48.25
2022-09-20T23:41:14.885Z,44.50
2022-09-20T23:43:43.411Z,43.50
2022-09-20T23:46:12.128Z,40.25
2022-09-20T23:48:41.511Z,43.25
2022-09-20T23:51:10.745Z,37.00
2022-09-20T23:53:40.251Z,38.00
2022-09-20T23:56:09.274Z,40.50
2022-09-20T23:58:38.666Z,35.75
